createdAt,value
2018-06-01T00:01:04.918Z,77.52
2018-06-01T00:04:08.183Z,76.93
2018-06-01T00:07:11.445Z,76.64
2018-06-01T00:10:15.643Z,75.99
2018-06-01T00:13:19.687Z,76.47
2018-06-01T00:16:23.018Z,76.40
2018-06-01T00:19:26.274Z,76.23
2018-06-01T00:22:30.962Z,76.50
2018-06-01T00:25:34.358Z,76.27
2018-06-01T00:28:37.616Z,75.93
2018-06-01T00:31:40.889Z,75.64
2018-06-01T00:34:45.031Z,75.43
2018-06-01T00:37:48.313Z,75.33
2018-06-01T00:40:52.351Z,75.61
2018-06-01T00:43:55.604Z,75.72
2018-06-01T00:46:58.875Z,76.07
2018-06-01T00:50:02.130Z,75.96
2018-06-01T00:53:05.399Z,75.73
2018-06-01T00:56:09.784Z,75.97
2018-06-01T00:59:13.039Z,75.93
2018-06-01T01:02:16.307Z,75.67
2018-06-01T01:05:19.569Z,76.38
2018-06-01T01:08:22.843Z,76.23
2018-06-01T01:11:26.110Z,76.58
2018-06-01T01:14:29.370Z,76.86
2018-06-01T01:17:32.629Z,76.48
2018-06-01T01:20:36.669Z,76.28
2018-06-01T01:23:41.302Z,77.08
2018-06-01T01:26:44.555Z,77.18
2018-06-01T01:29:49.729Z,76.78
2018-06-01T01:32:53.045Z,76.70
2018-06-01T01:35:56.311Z,76.25
2018-06-01T01:38:59.578Z,76.25
2018-06-01T01:42:04.194Z,75.74
2018-06-01T01:45:07.459Z,75.63
2018-06-01T01:48:10.770Z,75.81
2018-06-01T01:51:14.045Z,75.96
2018-06-01T01:54:17.335Z,76.43
2018-06-01T01:57:21.461Z,76.88
2018-06-01T02:00:24.715Z,77.06
2018-06-01T02:03:29.559Z,77.01
2018-06-01T02:06:32.830Z,77.12
2018-06-01T02:09:36.089Z,76.97
2018-06-01T02:12:39.589Z,76.93
2018-06-01T02:15:42.847Z,76.72
2018-06-01T02:18:46.869Z,76.42
2018-06-01T02:21:50.170Z,76.02
2018-06-01T02:24:53.414Z,76.56
2018-06-01T02:27:56.681Z,76.19
2018-06-01T02:30:59.947Z,75.88
2018-06-01T02:34:03.964Z,75.93
2018-06-01T02:37:07.992Z,75.45
2018-06-01T02:40:11.274Z,75.88
2018-06-01T02:43:15.304Z,75.58
2018-06-01T02:46:18.603Z,75.98
2018-06-01T02:49:21.987Z,76.22
2018-06-01T02:52:26.018Z,76.48
2018-06-01T02:55:29.326Z,76.32
2018-06-01T02:58:32.622Z,77.07
2018-06-01T03:01:35.894Z,77.33
2018-06-01T03:04:39.917Z,76.98
2018-06-01T03:07:43.811Z,76.88
2018-06-01T03:10:47.840Z,76.75
2018-06-01T03:13:51.871Z,76.38
2018-06-01T03:16:55.157Z,75.99
2018-06-01T03:19:59.175Z,75.26
2018-06-01T03:23:02.430Z,75.22
2018-06-01T03:26:06.901Z,75.76
2018-06-01T03:29:10.933Z,75.51
2018-06-01T03:32:14.211Z,74.98
2018-06-01T03:35:17.466Z,74.44
2018-06-01T03:38:20.733Z,74.34
2018-06-01T03:41:24.004Z,74.24
2018-06-01T03:44:27.418Z,73.74
2018-06-01T03:47:30.713Z,73.27
2018-06-01T03:50:33.975Z,73.45
2018-06-01T03:53:38.002Z,73.26
2018-06-01T03:56:42.142Z,72.89
2018-06-01T03:59:45.418Z,72.38
2018-06-01T04:02:48.743Z,72.18
2018-06-01T04:05:51.991Z,71.99
2018-06-01T04:08:56.042Z,71.18
2018-06-01T04:11:59.328Z,71.31
2018-06-01T04:15:03.321Z,70.94
2018-06-01T04:18:07.358Z,70.38
2018-06-01T04:21:10.626Z,69.83
2018-06-01T04:24:13.907Z,70.07
2018-06-01T04:27:17.181Z,69.02
2018-06-01T04:30:20.512Z,68.04
2018-06-01T04:33:24.674Z,67.47
2018-06-01T04:36:28.134Z,66.91
2018-06-01T04:39:31.488Z,67.32
2018-06-01T04:42:34.766Z,67.22
2018-06-01T04:45:40.416Z,67.43
2018-06-01T04:48:44.903Z,67.71
2018-06-01T04:51:49.441Z,68.05
2018-06-01T04:54:52.721Z,68.18
2018-06-01T04:57:56.066Z,68.27
2018-06-01T05:00:59.335Z,68.23
2018-06-01T05:04:02.599Z,68.00
2018-06-01T05:07:07.351Z,68.37
2018-06-01T05:10:13.178Z,68.20
2018-06-01T05:13:18.105Z,67.55
2018-06-01T05:16:22.852Z,67.96
2018-06-01T05:19:26.679Z,68.00
2018-06-01T05:22:34.685Z,68.27
2018-06-01T05:25:38.198Z,67.90
2018-06-01T05:28:41.519Z,67.70
2018-06-01T05:31:45.164Z,67.84
2018-06-01T05:34:48.511Z,67.83
2018-06-01T05:37:51.786Z,68.22
2018-06-01T05:40:57.761Z,67.94
2018-06-01T05:44:04.098Z,68.16
2018-06-01T05:47:08.241Z,67.73
2018-06-01T05:50:12.339Z,67.93
2018-06-01T05:53:16.420Z,68.05
2018-06-01T05:56:19.741Z,67.46
2018-06-01T05:59:23.774Z,66.81
2018-06-01T06:02:27.053Z,66.85
2018-06-01T06:05:31.155Z,67.34
2018-06-01T06:08:34.423Z,67.03
2018-06-01T06:11:38.104Z,67.17
2018-06-01T06:14:41.397Z,67.45
2018-06-01T06:17:45.483Z,68.07
2018-06-01T06:20:48.793Z,67.60
2018-06-01T06:23:52.829Z,67.83
2018-06-01T06:26:57.142Z,68.87
2018-06-01T06:30:00.426Z,69.21
2018-06-01T06:33:03.687Z,71.22
2018-06-01T06:36:06.981Z,72.59
2018-06-01T06:39:11.786Z,73.37
2018-06-01T06:42:15.054Z,72.06
2018-06-01T06:45:19.098Z,71.37
2018-06-01T06:48:22.377Z,70.59
2018-06-01T06:51:26.495Z,67.63
2018-06-01T06:54:30.531Z,62.79
2018-06-01T06:57:33.842Z,63.27
2018-06-01T07:00:37.443Z,65.55
2018-06-01T07:03:40.742Z,66.28
2018-06-01T07:06:44.028Z,65.75
2018-06-01T07:09:47.295Z,64.91
2018-06-01T07:12:51.497Z,66.78
2018-06-01T07:15:54.782Z,66.16
2018-06-01T07:18:58.047Z,65.25
2018-06-01T07:22:01.737Z,63.14
2018-06-01T07:25:05.317Z,62.25
2018-06-01T07:28:08.614Z,61.15
2018-06-01T07:31:11.919Z,62.36
2018-06-01T07:34:15.961Z,63.99
2018-06-01T07:37:19.243Z,63.01
2018-06-01T07:40:22.515Z,63.00
2018-06-01T07:43:25.862Z,60.10
2018-06-01T07:46:29.122Z,59.25
2018-06-01T07:49:33.181Z,59.58
2018-06-01T07:52:36.442Z,59.40
2018-06-01T07:55:40.560Z,56.69
2018-06-01T07:58:44.754Z,58.34
2018-06-01T08:01:48.013Z,56.38
2018-06-01T08:04:52.313Z,58.90
2018-06-01T08:07:55.641Z,59.52
2018-06-01T08:10:58.914Z,60.29
2018-06-01T08:14:02.204Z,60.29
2018-06-01T08:17:05.634Z,61.05
2018-06-01T08:20:08.884Z,60.52
2018-06-01T08:23:12.903Z,60.01
2018-06-01T08:26:16.332Z,59.85
2018-06-01T08:29:19.693Z,58.92
2018-06-01T08:32:23.887Z,60.02
2018-06-01T08:35:27.121Z,56.66
2018-06-01T08:38:30.419Z,55.67
2018-06-01T08:41:33.728Z,57.14
2018-06-01T08:44:36.989Z,58.19
2018-06-01T08:47:40.311Z,58.95
2018-06-01T08:50:43.703Z,57.28
2018-06-01T08:53:47.804Z,58.04
2018-06-01T08:56:51.857Z,58.87
2018-06-01T08:59:56.189Z,58.98
2018-06-01T09:02:59.446Z,59.89
2018-06-01T09:06:03.516Z,60.94
2018-06-01T09:09:07.062Z,61.33
2018-06-01T09:12:11.099Z,62.16
2018-06-01T09:15:14.390Z,60.00
2018-06-01T09:18:17.669Z,60.16
2018-06-01T09:21:21.729Z,59.96
2018-06-01T09:24:24.992Z,57.67
2018-06-01T09:27:29.024Z,57.04
2018-06-01T09:30:33.213Z,52.97
2018-06-01T09:33:36.480Z,52.49
2018-06-01T09:36:40.637Z,53.11
2018-06-01T09:39:44.654Z,54.27
2018-06-01T09:42:49.795Z,55.71
2018-06-01T09:45:53.824Z,59.39
2018-06-01T09:48:57.094Z,59.20
2018-06-01T09:52:00.343Z,59.79
2018-06-01T09:55:04.047Z,58.02
2018-06-01T09:58:07.307Z,57.55
2018-06-01T10:01:10.583Z,55.87
2018-06-01T10:04:13.917Z,56.39
2018-06-01T10:07:17.178Z,56.21
2018-06-01T10:10:26.019Z,55.22
2018-06-01T10:13:32.554Z,53.83
2018-06-01T10:16:35.819Z,53.93
2018-06-01T10:19:39.094Z,52.08
2018-06-01T10:22:43.192Z,51.04
2018-06-01T10:25:46.459Z,51.91
2018-06-01T10:28:49.718Z,52.92
2018-06-01T10:31:52.989Z,54.48
2018-06-01T10:34:56.984Z,54.21
2018-06-01T10:38:00.258Z,55.32
2018-06-01T10:41:03.513Z,53.98
2018-06-01T10:44:07.553Z,53.47
2018-06-01T10:47:11.033Z,53.15
2018-06-01T10:50:15.061Z,51.13
2018-06-01T10:53:18.322Z,54.04
2018-06-01T10:56:21.592Z,50.28
2018-06-01T10:59:24.920Z,50.72
2018-06-01T11:02:28.175Z,50.81
2018-06-01T11:05:32.205Z,51.83
2018-06-01T11:08:36.923Z,49.05
2018-06-01T11:11:40.194Z,50.98
2018-06-01T11:14:43.445Z,54.53
2018-06-01T11:17:47.475Z,52.86
2018-06-01T11:20:51.468Z,51.66
2018-06-01T11:23:55.490Z,51.41
2018-06-01T11:26:59.522Z,51.57
2018-06-01T11:30:03.548Z,52.51
2018-06-01T11:33:06.816Z,49.68
2018-06-01T11:36:10.070Z,51.75
2018-06-01T11:39:13.321Z,52.59
2018-06-01T11:42:16.605Z,51.45
2018-06-01T11:45:20.641Z,47.41
2018-06-01T11:48:25.610Z,49.02
2018-06-01T11:51:29.724Z,51.05
2018-06-01T11:54:34.115Z,52.12
2018-06-01T11:57:37.377Z,52.53
2018-06-01T12:00:41.754Z,47.26
2018-06-01T12:03:48.845Z,48.50
2018-06-01T12:06:52.105Z,47.91
2018-06-01T12:09:55.417Z,50.29
2018-06-01T12:12:58.665Z,48.08
2018-06-01T12:16:02.518Z,49.96
2018-06-01T12:19:05.779Z,49.00
2018-06-01T12:22:09.058Z,50.36
2018-06-01T12:25:12.319Z,49.28
2018-06-01T12:28:15.590Z,48.67
2018-06-01T12:31:19.618Z,49.70
2018-06-01T12:34:22.866Z,49.18
2018-06-01T12:37:26.211Z,47.41
2018-06-01T12:40:29.492Z,48.74
2018-06-01T12:43:32.765Z,47.50
2018-06-01T12:46:36.036Z,46.69
2018-06-01T12:49:39.302Z,45.47
2018-06-01T12:52:42.553Z,47.74
2018-06-01T12:55:45.811Z,46.80
2018-06-01T12:58:49.190Z,49.42
2018-06-01T13:01:52.579Z,49.30
2018-06-01T13:04:56.690Z,48.94
2018-06-01T13:08:00.710Z,49.53
2018-06-01T13:11:04.725Z,48.66
2018-06-01T13:14:08.800Z,47.28
2018-06-01T13:17:12.102Z,46.02
2018-06-01T13:20:15.360Z,45.80
2018-06-01T13:23:18.613Z,44.54
2018-06-01T13:26:21.865Z,44.85
2018-06-01T13:29:25.115Z,42.81
2018-06-01T13:32:29.305Z,45.79
2018-06-01T13:35:32.655Z,44.42
2018-06-01T13:38:35.913Z,44.05
2018-06-01T13:41:39.173Z,43.95
2018-06-01T13:44:42.422Z,46.72
2018-06-01T13:47:46.563Z,44.69
2018-06-01T13:50:50.693Z,44.73
2018-06-01T13:53:53.965Z,44.02
2018-06-01T13:56:58.082Z,42.08
2018-06-01T14:00:02.199Z,43.70
2018-06-01T14:03:06.237Z,45.88
2018-06-01T14:06:09.511Z,43.57
2018-06-01T14:09:13.516Z,45.41
2018-06-01T14:12:17.551Z,45.70
2018-06-01T14:15:21.249Z,47.54
2018-06-01T14:18:25.257Z,45.01
2018-06-01T14:21:29.283Z,47.40
2018-06-01T14:24:33.362Z,46.71
2018-06-01T14:27:36.627Z,47.78
2018-06-01T14:30:39.873Z,48.10
2018-06-01T14:33:44.065Z,46.96
2018-06-01T14:36:47.511Z,47.55
2018-06-01T14:39:51.541Z,46.84
2018-06-01T14:42:54.816Z,46.09
2018-06-01T14:45:58.842Z,46.63
2018-06-01T14:49:02.110Z,45.91
2018-06-01T14:52:05.438Z,46.94
2018-06-01T14:55:08.724Z,45.73
2018-06-01T14:58:12.961Z,45.17
2018-06-01T15:01:16.219Z,43.94
2018-06-01T15:04:19.462Z,44.71
2018-06-01T15:07:22.752Z,44.13
2018-06-01T15:10:26.059Z,43.43
2018-06-01T15:13:29.353Z,44.03
2018-06-01T15:16:32.633Z,44.25
2018-06-01T15:19:38.513Z,43.06
2018-06-01T15:22:41.773Z,43.93
2018-06-01T15:25:45.973Z,45.29
2018-06-01T15:28:49.204Z,45.51
2018-06-01T15:31:53.253Z,44.36
2018-06-01T15:34:56.521Z,44.36
2018-06-01T15:37:59.780Z,43.99
2018-06-01T15:41:03.958Z,43.49
2018-06-01T15:44:07.225Z,44.58
2018-06-01T15:47:11.373Z,43.28
2018-06-01T15:50:14.650Z,47.26
2018-06-01T15:53:18.879Z,45.88
2018-06-01T15:56:22.636Z,47.53
2018-06-01T15:59:25.985Z,48.36
2018-06-01T16:02:30.416Z,46.30
2018-06-01T16:05:33.779Z,45.79
2018-06-01T16:08:37.047Z,45.39
2018-06-01T16:11:40.541Z,47.71
2018-06-01T16:14:43.999Z,46.24
2018-06-01T16:17:48.017Z,47.07
2018-06-01T16:20:52.029Z,47.09
2018-06-01T16:23:55.281Z,48.66
2018-06-01T16:26:58.679Z,47.66
2018-06-01T16:30:01.946Z,47.68
2018-06-01T16:33:05.261Z,48.09
2018-06-01T16:36:08.635Z,47.94
2018-06-01T16:39:12.749Z,48.89
2018-06-01T16:42:16.778Z,49.17
2018-06-01T16:45:20.819Z,49.36
2018-06-01T16:48:24.256Z,49.95
2018-06-01T16:51:27.510Z,50.07
2018-06-01T16:54:30.776Z,49.74
2018-06-01T16:57:34.906Z,50.01
2018-06-01T17:00:38.188Z,49.06
2018-06-01T17:03:42.205Z,47.65
2018-06-01T17:06:46.295Z,49.06
2018-06-01T17:09:49.563Z,49.16
2018-06-01T17:12:53.071Z,50.93
2018-06-01T17:15:56.370Z,48.96
2018-06-01T17:18:59.655Z,49.64
2018-06-01T17:22:03.737Z,50.31
2018-06-01T17:25:07.083Z,49.79
2018-06-01T17:28:10.372Z,50.35
2018-06-01T17:31:13.649Z,50.74
2018-06-01T17:34:16.951Z,51.40
2018-06-01T17:37:20.618Z,50.27
2018-06-01T17:40:24.655Z,50.23
2018-06-01T17:43:29.298Z,51.26
2018-06-01T17:46:33.499Z,49.42
2018-06-01T17:49:38.941Z,50.21
2018-06-01T17:52:42.513Z,50.84
2018-06-01T17:55:55.041Z,51.04
2018-06-01T17:58:58.733Z,51.74
2018-06-01T18:02:02.433Z,50.54
2018-06-01T18:05:06.653Z,50.07
2018-06-01T18:08:10.717Z,50.93
2018-06-01T18:11:14.004Z,51.18
2018-06-01T18:14:17.362Z,52.25
2018-06-01T18:17:21.530Z,52.60
2018-06-01T18:20:24.794Z,53.84
2018-06-01T18:23:28.112Z,54.72
2018-06-01T18:26:31.491Z,54.27
2018-06-01T18:29:34.933Z,54.13
2018-06-01T18:32:38.185Z,53.49
2018-06-01T18:35:41.668Z,53.06
2018-06-01T18:38:45.800Z,53.95
2018-06-01T18:41:49.106Z,55.44
2018-06-01T18:44:52.483Z,55.43
2018-06-01T18:47:56.642Z,55.32
2018-06-01T18:51:00.113Z,55.24
2018-06-01T18:54:03.514Z,55.60
2018-06-01T18:57:07.557Z,55.72
2018-06-01T19:00:10.923Z,55.87
2018-06-01T19:03:14.212Z,56.40
2018-06-01T19:06:18.245Z,56.25
2018-06-01T19:09:21.593Z,56.54
2018-06-01T19:12:24.917Z,57.21
2018-06-01T19:15:28.982Z,56.91
2018-06-01T19:18:32.256Z,57.15
2018-06-01T19:21:35.520Z,57.19
2018-06-01T19:24:38.780Z,57.62
2018-06-01T19:27:42.144Z,57.59
2018-06-01T19:30:46.166Z,58.40
2018-06-01T19:33:49.422Z,58.44
2018-06-01T19:36:53.457Z,59.33
2018-06-01T19:39:57.473Z,60.24
2018-06-01T19:43:00.737Z,59.85
2018-06-01T19:46:03.991Z,60.78
2018-06-01T19:49:07.251Z,61.00
2018-06-01T19:52:10.506Z,60.41
2018-06-01T19:55:13.761Z,59.75
2018-06-01T19:58:17.800Z,60.58
2018-06-01T20:01:21.053Z,61.34
2018-06-01T20:04:25.131Z,61.81
2018-06-01T20:07:28.490Z,61.84
2018-06-01T20:10:32.686Z,61.88
2018-06-01T20:13:36.113Z,61.90
2018-06-01T20:16:40.234Z,62.97
2018-06-01T20:19:44.434Z,63.17
2018-06-01T20:22:48.873Z,63.01
2018-06-01T20:25:52.190Z,63.81
2018-06-01T20:28:55.458Z,63.40
2018-06-01T20:31:59.754Z,64.75
2018-06-01T20:35:03.093Z,64.70
2018-06-01T20:38:06.381Z,63.93
2018-06-01T20:41:10.400Z,64.46
2018-06-01T20:44:14.525Z,64.34
2018-06-01T20:47:17.909Z,64.53
2018-06-01T20:50:22.036Z,64.81
2018-06-01T20:53:26.058Z,65.38
2018-06-01T20:56:29.438Z,65.64
2018-06-01T20:59:33.459Z,65.86
2018-06-01T21:02:36.728Z,65.68
2018-06-01T21:05:40.165Z,65.86
2018-06-01T21:08:43.421Z,65.98
2018-06-01T21:11:54.106Z,66.02
2018-06-01T21:14:57.379Z,65.99
2018-06-01T21:18:01.525Z,66.25
2018-06-01T21:21:06.597Z,66.28
2018-06-01T21:24:09.929Z,65.92
2018-06-01T21:27:13.179Z,65.97
2018-06-01T21:30:17.218Z,66.25
2018-06-01T21:33:20.490Z,67.08
2018-06-01T21:36:24.525Z,67.64
2018-06-01T21:39:27.804Z,68.66
2018-06-01T21:42:31.813Z,69.21
2018-06-01T21:45:35.073Z,69.56
2018-06-01T21:48:38.350Z,69.16
2018-06-01T21:51:41.615Z,68.99
2018-06-01T21:54:45.667Z,69.20
2018-06-01T21:57:48.909Z,69.26
2018-06-01T22:00:54.183Z,68.74
2018-06-01T22:03:57.772Z,68.95
2018-06-01T22:07:01.800Z,69.41
2018-06-01T22:10:05.059Z,69.30
2018-06-01T22:13:08.306Z,68.97
2018-06-01T22:16:11.623Z,69.32
2018-06-01T22:19:14.853Z,69.55
2018-06-01T22:22:18.111Z,69.50
2018-06-01T22:25:21.373Z,69.17
2018-06-01T22:28:24.630Z,69.29
2018-06-01T22:31:27.955Z,69.32
2018-06-01T22:34:31.985Z,69.32
2018-06-01T22:37:35.247Z,69.54
2018-06-01T22:40:38.489Z,69.68
2018-06-01T22:43:41.811Z,71.61
2018-06-01T22:46:45.125Z,71.33
2018-06-01T22:49:49.173Z,70.67
2018-06-01T22:52:53.344Z,69.61
2018-06-01T22:55:56.593Z,69.55
2018-06-01T22:59:00.894Z,68.82
2018-06-01T23:02:04.988Z,68.31
2018-06-01T23:05:08.237Z,67.65
2018-06-01T23:08:11.490Z,68.00
2018-06-01T23:11:14.744Z,68.29
2018-06-01T23:14:18.033Z,68.49
2018-06-01T23:17:21.413Z,68.95
2018-06-01T23:20:25.515Z,68.92
2018-06-01T23:23:28.799Z,68.80
2018-06-01T23:26:32.054Z,69.21
2018-06-01T23:29:35.311Z,68.67
2018-06-01T23:32:39.426Z,69.15
2018-06-01T23:35:42.858Z,69.02
2018-06-01T23:38:47.679Z,68.40
2018-06-01T23:41:50.940Z,69.26
2018-06-01T23:44:54.193Z,70.79
2018-06-01T23:47:57.465Z,71.68
2018-06-01T23:51:01.603Z,72.18
2018-06-01T23:54:04.854Z,72.86
2018-06-01T23:57:09.609Z,72.35
